Time;durP1;ratioP1;P1;durP2;ratioP2;P2;SDS_P1;SDS_P2;PMS_P1;PMS_P2;Temp;Humidity;BMP_temperature;BMP_pressure;BME280_temperature;BME280_humidity;BME280_pressure;Samples;Min_cycle;Max_cycle;Signal;HPM_P1;HPM_P2
2022/07/12 00:00:55;;;;;;;2.25;1.73;;;19.10;99.90;;;;;;4965160;28;25064;-69
2022/07/12 00:03:20;;;;;;;2.00;1.80;;;19.00;99.90;;;;;;4969445;28;25168;-69
2022/07/12 00:05:46;;;;;;;6.13;2.13;;;19.00;99.90;;;;;;4969098;28;25171;-70
2022/07/12 00:08:12;;;;;;;5.00;2.10;;;18.90;99.90;;;;;;4969213;28;25126;-70
2022/07/12 00:10:37;;;;;;;4.00;2.72;;;19.00;99.90;;;;;;4972645;28;25116;-70
2022/07/12 00:13:04;;;;;;;3.65;2.72;;;18.90;99.90;;;;;;4967775;28;25141;-70
2022/07/12 00:15:30;;;;;;;4.72;2.80;;;18.90;99.90;;;;;;4969222;28;25142;-71
2022/07/12 00:17:56;;;;;;;2.60;2.40;;;18.90;99.90;;;;;;4974515;28;25056;-68
2022/07/12 00:20:21;;;;;;;5.13;3.05;;;18.90;99.90;;;;;;4971061;28;25058;-69
2022/07/12 00:22:47;;;;;;;3.50;2.53;;;18.90;99.90;;;;;;4972717;28;25118;-69
2022/07/12 00:25:13;;;;;;;5.15;2.92;;;18.80;99.90;;;;;;4978249;28;25070;-69
2022/07/12 00:27:39;;;;;;;5.65;3.03;;;18.70;99.90;;;;;;4978629;28;25104;-69
2022/07/12 00:30:07;;;;;;;3.20;2.80;;;18.60;99.90;;;;;;4976046;28;25095;-70
2022/07/12 00:32:33;;;;;;;3.88;3.25;;;18.70;99.90;;;;;;4961751;28;25101;-70
2022/07/12 00:34:59;;;;;;;8.82;3.33;;;18.70;99.90;;;;;;4976740;28;25063;-69
2022/07/12 00:37:24;;;;;;;2.97;2.40;;;18.60;99.90;;;;;;4971103;28;25140;-70
2022/07/12 00:39:50;;;;;;;2.70;2.50;;;18.80;99.90;;;;;;4977600;28;25061;-70
2022/07/12 00:42:16;;;;;;;5.18;2.70;;;18.90;99.90;;;;;;4975306;28;25068;-69
2022/07/12 00:44:42;;;;;;;4.05;3.20;;;18.90;99.90;;;;;;4975182;28;25078;-71
2022/07/12 00:47:25;;;;;;;5.20;2.90;;;19.00;99.90;;;;;;4977279;28;25166;-70
2022/07/12 00:49:51;;;;;;;4.32;3.00;;;18.90;99.90;;;;;;4973993;28;25077;-70
2022/07/12 00:52:17;;;;;;;3.40;2.90;;;19.00;99.90;;;;;;4981544;28;25091;-70
2022/07/12 00:54:43;;;;;;;7.65;3.33;;;18.90;99.90;;;;;;4986462;28;25068;-70
2022/07/12 00:57:08;;;;;;;7.40;2.90;;;18.80;99.90;;;;;;4983676;28;25063;-71
2022/07/12 00:59:34;;;;;;;6.00;3.70;;;18.60;99.90;;;;;;4979792;28;25080;-70
2022/07/12 01:02:00;;;;;;;3.90;3.42;;;18.50;99.90;;;;;;4971962;28;25065;-70
2022/07/12 01:04:25;;;;;;;4.45;2.88;;;18.50;99.90;;;;;;4976336;28;25324;-71
2022/07/12 01:06:51;;;;;;;5.65;3.80;;;18.40;99.90;;;;;;4973783;28;25060;-69
2022/07/12 01:09:17;;;;;;;3.50;3.00;;;18.50;99.90;;;;;;4979693;28;25147;-69
2022/07/12 01:11:42;;;;;;;4.78;2.90;;;18.50;99.90;;;;;;4978342;28;25075;-71
2022/07/12 01:14:09;;;;;;;3.60;2.85;;;18.50;99.90;;;;;;4974265;28;25099;-71
2022/07/12 01:16:37;;;;;;;4.28;2.97;;;18.50;99.90;;;;;;4975999;28;25106;-69
2022/07/12 01:19:06;;;;;;;3.35;2.85;;;18.40;99.90;;;;;;4974213;28;25072;-70
2022/07/12 01:21:37;;;;;;;3.45;3.00;;;18.40;99.90;;;;;;4975580;28;25058;-69
2022/07/12 01:24:04;;;;;;;2.97;2.67;;;18.50;99.90;;;;;;4972907;28;25074;-70
2022/07/12 01:26:30;;;;;;;4.70;3.25;;;18.50;99.90;;;;;;4971292;28;25079;-70
2022/07/12 01:28:57;;;;;;;5.32;3.40;;;18.40;99.90;;;;;;4977205;28;25068;-69
2022/07/12 01:31:23;;;;;;;6.38;3.47;;;18.50;99.90;;;;;;4963959;28;25118;-70
2022/07/12 01:33:50;;;;;;;4.65;3.83;;;18.50;99.90;;;;;;4974086;28;25077;-70
2022/07/12 01:36:16;;;;;;;4.20;3.75;;;18.50;99.90;;;;;;4974853;28;25102;-70
2022/07/12 01:38:42;;;;;;;16.17;4.88;;;18.40;99.90;;;;;;4982412;28;25077;-70
2022/07/12 01:41:08;;;;;;;5.05;4.30;;;18.50;99.90;;;;;;4978749;28;25080;-69
2022/07/12 01:43:35;;;;;;;6.45;4.10;;;18.50;99.90;;;;;;4979611;28;25066;-70
2022/07/12 01:46:00;;;;;;;5.30;3.78;;;18.50;99.90;;;;;;4974939;28;25062;-70
2022/07/12 01:48:26;;;;;;;6.18;4.50;;;18.50;99.90;;;;;;4980368;28;25076;-69
2022/07/12 01:50:52;;;;;;;7.25;4.82;;;18.40;99.90;;;;;;4973308;28;25167;-70
2022/07/12 01:53:18;;;;;;;5.13;4.63;;;18.40;99.90;;;;;;4974921;28;25063;-71
2022/07/12 01:55:44;;;;;;;4.75;4.35;;;18.50;99.90;;;;;;4981286;28;25155;-70
2022/07/12 01:58:12;;;;;;;6.93;4.30;;;18.50;99.90;;;;;;4966387;28;25131;-70
2022/07/12 02:00:39;;;;;;;4.85;4.40;;;18.50;99.90;;;;;;4975045;28;25085;-69
2022/07/12 02:03:04;;;;;;;4.65;4.25;;;18.50;99.90;;;;;;4995286;28;25153;-70
2022/07/12 02:05:30;;;;;;;6.28;5.53;;;18.50;99.90;;;;;;4966249;28;25076;-69
2022/07/12 02:07:56;;;;;;;5.88;5.15;;;18.50;99.90;;;;;;4975274;28;25072;-69
2022/07/12 02:10:22;;;;;;;7.72;5.25;;;18.50;99.90;;;;;;4961945;28;25100;-70
2022/07/12 02:12:47;;;;;;;6.80;5.45;;;18.40;99.90;;;;;;4981644;28;25147;-70
2022/07/12 02:15:13;;;;;;;5.88;5.38;;;18.40;99.90;;;;;;4962875;28;25071;-70
2022/07/12 02:17:39;;;;;;;5.60;5.10;;;18.30;99.90;;;;;;4965468;28;25109;-72
2022/07/12 02:20:05;;;;;;;5.28;4.47;;;18.30;99.90;;;;;;4959674;28;25078;-69
2022/07/12 02:22:30;;;;;;;6.60;5.10;;;18.30;99.90;;;;;;4967330;28;25062;-68
2022/07/12 02:24:56;;;;;;;8.98;5.53;;;18.30;99.90;;;;;;4965461;28;25048;-70
2022/07/12 02:27:22;;;;;;;5.28;4.65;;;18.30;99.90;;;;;;4969074;28;25096;-71
2022/07/12 02:29:47;;;;;;;6.13;5.32;;;18.30;99.90;;;;;;4968705;28;25072;-69
2022/07/12 02:32:14;;;;;;;6.45;4.50;;;18.20;99.90;;;;;;4969410;28;25069;-69
2022/07/12 02:34:39;;;;;;;5.57;4.75;;;18.30;99.90;;;;;;4976160;28;24890;-70
2022/07/12 02:37:05;;;;;;;8.20;5.57;;;18.40;99.90;;;;;;4974866;28;25162;-70
2022/07/12 02:39:30;;;;;;;8.27;4.85;;;18.50;99.90;;;;;;4968106;28;25072;-69
2022/07/12 02:41:56;;;;;;;5.18;4.70;;;18.40;99.90;;;;;;4974008;28;25093;-70
2022/07/12 02:44:21;;;;;;;7.47;5.10;;;18.30;99.90;;;;;;4968480;28;25062;-69
2022/07/12 02:46:47;;;;;;;4.80;4.40;;;18.40;99.90;;;;;;4976614;28;25074;-70
2022/07/12 02:49:13;;;;;;;9.70;5.95;;;18.50;99.90;;;;;;4966227;28;25062;-70
2022/07/12 02:51:39;;;;;;;7.90;5.85;;;18.30;99.90;;;;;;4973185;28;25057;-71
2022/07/12 02:54:04;;;;;;;7.53;5.32;;;18.20;99.90;;;;;;4973422;28;25068;-70
2022/07/12 02:56:30;;;;;;;7.07;5.35;;;18.10;99.90;;;;;;4982781;28;25058;-71
2022/07/12 02:58:55;;;;;;;5.53;5.00;;;18.10;99.90;;;;;;4978859;28;25108;-70
2022/07/12 03:01:21;;;;;;;6.07;5.22;;;18.10;99.90;;;;;;4972524;28;25063;-68
2022/07/12 03:03:46;;;;;;;7.40;4.78;;;18.10;99.90;;;;;;4965602;28;25146;-69
2022/07/12 03:06:12;;;;;;;7.00;5.85;;;18.00;99.90;;;;;;4962787;28;25081;-70
2022/07/12 03:08:38;;;;;;;6.90;6.05;;;18.00;99.90;;;;;;4965757;28;25060;-70
2022/07/12 03:11:04;;;;;;;8.07;6.32;;;18.00;99.90;;;;;;4969228;28;25170;-69
2022/07/12 03:13:29;;;;;;;6.90;6.20;;;18.10;99.90;;;;;;4968061;28;24968;-70
2022/07/12 03:15:55;;;;;;;9.20;6.53;;;18.10;99.90;;;;;;4978597;28;25113;-69
2022/07/12 03:18:20;;;;;;;7.25;5.90;;;18.10;99.90;;;;;;4972985;28;25125;-68
2022/07/12 03:20:48;;;;;;;9.40;6.70;;;18.10;99.90;;;;;;4971856;28;25154;-69
2022/07/12 03:23:14;;;;;;;11.27;7.30;;;18.00;99.90;;;;;;4978992;28;25097;-70
2022/07/12 03:25:39;;;;;;;7.43;6.25;;;18.00;99.90;;;;;;4979853;28;25079;-68
2022/07/12 03:28:05;;;;;;;9.50;6.40;;;18.10;99.90;;;;;;4981451;28;25112;-69
2022/07/12 03:30:31;;;;;;;8.85;6.55;;;18.10;99.90;;;;;;4969738;28;25061;-69
2022/07/12 03:32:56;;;;;;;6.70;6.10;;;18.10;99.90;;;;;;4976000;28;25081;-70
2022/07/12 03:35:22;;;;;;;8.07;7.28;;;18.10;99.90;;;;;;4972531;28;25116;-69
2022/07/12 03:37:52;;;;;;;7.00;6.30;;;18.10;99.90;;;;;;4976787;28;25081;-69
2022/07/12 03:40:20;;;;;;;9.20;6.85;;;18.00;99.90;;;;;;4969394;28;25081;-69
2022/07/12 03:42:47;;;;;;;9.40;6.50;;;18.00;99.90;;;;;;4974588;28;25139;-69
2022/07/12 03:45:13;;;;;;;6.75;6.03;;;18.10;99.90;;;;;;4974584;28;25063;-69
2022/07/12 03:47:39;;;;;;;5.63;5.13;;;18.20;99.90;;;;;;4974554;28;25150;-69
2022/07/12 03:50:07;;;;;;;7.05;6.32;;;18.30;99.90;;;;;;4966895;28;25118;-69
2022/07/12 03:52:33;;;;;;;7.35;6.03;;;18.30;99.90;;;;;;4967305;28;25130;-69
2022/07/12 03:54:59;;;;;;;8.32;6.20;;;18.20;99.90;;;;;;4973083;28;25135;-68
2022/07/12 03:57:26;;;;;;;6.70;6.00;;;18.10;99.90;;;;;;4975593;28;25170;-69
2022/07/12 03:59:52;;;;;;;7.63;6.10;;;18.00;99.90;;;;;;4965479;28;25057;-68
2022/07/12 04:02:18;;;;;;;6.63;5.82;;;18.00;99.90;;;;;;4963099;28;25054;-68
2022/07/12 04:04:44;;;;;;;8.88;7.38;;;18.00;99.90;;;;;;4974023;28;25053;-68
2022/07/12 04:07:09;;;;;;;7.85;7.05;;;18.00;99.90;;;;;;4970179;28;25139;-70
2022/07/12 04:09:35;;;;;;;8.73;7.82;;;18.10;99.90;;;;;;4979763;28;25123;-69
2022/07/12 04:12:01;;;;;;;8.90;8.00;;;18.20;99.90;;;;;;4970009;28;25070;-69
2022/07/12 04:14:28;;;;;;;8.60;7.78;;;18.30;99.90;;;;;;4965897;28;25104;-69
2022/07/12 04:16:54;;;;;;;8.80;8.00;;;18.40;99.90;;;;;;4965577;28;25093;-69
2022/07/12 04:19:23;;;;;;;8.23;7.53;;;18.40;99.90;;;;;;4963382;28;25081;-68
2022/07/12 04:21:49;;;;;;;9.68;8.02;;;18.40;99.90;;;;;;4974903;28;25178;-67
2022/07/12 04:24:14;;;;;;;8.57;7.57;;;18.40;99.90;;;;;;4968781;28;25106;-69
2022/07/12 04:26:40;;;;;;;9.73;7.78;;;18.50;99.90;;;;;;4970611;28;25151;-69
2022/07/12 04:29:06;;;;;;;8.70;7.95;;;18.60;99.90;;;;;;4962792;28;25085;-69
2022/07/12 04:31:31;;;;;;;8.82;7.65;;;18.60;99.90;;;;;;4963733;28;25056;-68
2022/07/12 04:33:57;;;;;;;8.73;7.78;;;18.60;99.90;;;;;;4963765;28;25130;-69
2022/07/12 04:36:23;;;;;;;9.35;7.55;;;18.60;99.90;;;;;;4964645;28;25121;-69
2022/07/12 04:38:48;;;;;;;8.88;8.15;;;18.80;99.90;;;;;;4962946;28;25142;-69
2022/07/12 04:41:14;;;;;;;8.80;7.63;;;18.80;99.90;;;;;;4969174;28;25075;-68
2022/07/12 04:43:39;;;;;;;11.82;8.30;;;18.80;99.90;;;;;;4965936;28;25053;-69
2022/07/12 04:46:09;;;;;;;8.82;7.97;;;18.80;99.90;;;;;;4974203;28;25078;-69
2022/07/12 04:48:35;;;;;;;11.25;7.63;;;19.00;99.90;;;;;;4975949;28;25063;-69
2022/07/12 04:51:01;;;;;;;8.52;7.63;;;19.10;99.90;;;;;;4987370;28;25053;-68
2022/07/12 04:53:27;;;;;;;10.45;8.23;;;19.20;99.90;;;;;;4964296;28;25065;-68
2022/07/12 04:55:56;;;;;;;8.63;7.82;;;19.20;99.90;;;;;;4969215;28;25167;-69
2022/07/12 04:58:23;;;;;;;8.98;8.15;;;19.40;99.90;;;;;;4964982;28;25110;-70
2022/07/12 05:00:49;;;;;;;12.25;7.57;;;19.50;99.90;;;;;;4970385;28;25167;-70
2022/07/12 05:03:14;;;;;;;8.27;7.47;;;19.50;99.90;;;;;;4972372;28;25078;-69
2022/07/12 05:05:40;;;;;;;9.73;8.07;;;19.60;99.90;;;;;;4981159;28;25067;-69
2022/07/12 05:08:06;;;;;;;11.73;9.30;;;19.60;99.90;;;;;;4960670;28;25109;-70
2022/07/12 05:10:31;;;;;;;11.02;8.57;;;19.50;99.90;;;;;;4963889;28;25072;-71
2022/07/12 05:12:57;;;;;;;9.65;8.75;;;19.60;99.90;;;;;;4964675;28;25125;-70
2022/07/12 05:15:23;;;;;;;10.65;9.65;;;19.60;99.90;;;;;;4966042;28;25108;-70
2022/07/12 05:17:48;;;;;;;9.75;8.75;;;19.80;99.90;;;;;;4967428;28;25059;-70
2022/07/12 05:20:14;;;;;;;9.93;9.00;;;19.80;99.90;;;;;;4964256;28;25103;-70
2022/07/12 05:22:41;;;;;;;11.00;9.30;;;19.80;99.90;;;;;;4966111;28;25113;-71
2022/07/12 05:25:08;;;;;;;10.50;9.50;;;19.90;99.90;;;;;;4963265;28;25073;-70
2022/07/12 05:27:37;;;;;;;9.63;8.73;;;20.00;99.90;;;;;;4961435;28;25073;-70
2022/07/12 05:30:04;;;;;;;12.35;9.13;;;20.10;99.90;;;;;;4962194;28;25074;-69
2022/07/12 05:32:29;;;;;;;11.23;10.05;;;20.10;99.90;;;;;;4964865;28;25095;-70
2022/07/12 05:34:55;;;;;;;9.60;8.65;;;20.20;99.90;;;;;;4964432;28;25110;-68
2022/07/12 05:37:23;;;;;;;10.07;9.02;;;20.40;99.90;;;;;;4966695;28;25061;-70
2022/07/12 05:39:49;;;;;;;9.73;8.68;;;20.40;99.90;;;;;;4966213;28;25142;-69
2022/07/12 05:42:14;;;;;;;12.45;9.82;;;20.40;99.90;;;;;;4973859;28;25504;-69
2022/07/12 05:44:40;;;;;;;10.88;9.80;;;20.50;99.90;;;;;;4970604;28;25105;-70
2022/07/12 05:47:05;;;;;;;12.85;11.00;;;20.60;99.90;;;;;;4966642;28;25094;-69
2022/07/12 05:49:31;;;;;;;12.18;10.05;;;20.50;99.90;;;;;;4959985;28;25120;-69
2022/07/12 05:54:41;;;;;;;14.48;9.77;;;20.60;99.90;;;;;;4967258;28;26394;-69
2022/07/12 05:57:06;;;;;;;14.02;10.82;;;20.60;99.90;;;;;;4963894;28;25093;-71
2022/07/12 05:59:34;;;;;;;21.38;11.55;;;20.70;99.90;;;;;;4970911;28;25104;-71
2022/07/12 06:02:00;;;;;;;17.60;10.90;;;20.70;99.90;;;;;;4968693;28;25072;-69
2022/07/12 06:04:25;;;;;;;14.13;11.15;;;20.70;99.90;;;;;;4968173;28;25079;-70
2022/07/12 06:06:51;;;;;;;11.80;10.57;;;20.70;99.90;;;;;;4968233;28;25100;-70
2022/07/12 06:09:17;;;;;;;12.15;10.88;;;20.60;99.90;;;;;;4979516;28;25067;-70
2022/07/12 06:11:42;;;;;;;16.20;10.80;;;20.60;99.90;;;;;;4972572;28;24878;-70
2022/07/12 06:14:08;;;;;;;13.38;11.82;;;20.60;99.90;;;;;;4974257;28;25139;-68
2022/07/12 06:16:33;;;;;;;11.25;10.10;;;20.70;99.90;;;;;;4971278;28;25052;-70
2022/07/12 06:18:59;;;;;;;11.10;9.90;;;20.70;99.90;;;;;;4967858;28;25063;-69
2022/07/12 06:21:25;;;;;;;13.05;10.88;;;20.90;99.90;;;;;;4973654;28;25109;-69
2022/07/12 06:23:50;;;;;;;12.88;9.93;;;21.10;99.90;;;;;;4968948;28;25108;-69
2022/07/12 06:26:16;;;;;;;12.52;11.00;;;21.30;99.90;;;;;;4974599;28;25130;-70
2022/07/12 06:28:41;;;;;;;11.93;10.73;;;21.30;99.90;;;;;;4976037;28;26195;-70
2022/07/12 06:31:07;;;;;;;16.42;10.35;;;21.40;99.90;;;;;;4973531;28;25141;-71
2022/07/12 06:33:34;;;;;;;13.05;10.70;;;21.40;99.90;;;;;;4969897;28;25100;-70
2022/07/12 06:35:59;;;;;;;12.48;9.95;;;21.30;99.90;;;;;;4966676;28;25120;-69
2022/07/12 06:38:25;;;;;;;11.68;9.82;;;21.30;99.90;;;;;;4968522;28;25058;-70
2022/07/12 06:40:51;;;;;;;15.77;10.50;;;21.30;99.90;;;;;;4965419;28;25054;-69
2022/07/12 06:43:16;;;;;;;10.90;9.77;;;21.50;99.90;;;;;;4965394;28;25098;-69
2022/07/12 06:45:42;;;;;;;12.43;10.80;;;21.60;99.90;;;;;;4976893;28;25082;-71
2022/07/12 06:48:07;;;;;;;11.68;10.50;;;21.40;99.90;;;;;;4981210;28;25117;-69
2022/07/12 06:50:33;;;;;;;11.73;10.32;;;21.40;99.90;;;;;;4970679;28;25095;-70
2022/07/12 06:52:59;;;;;;;14.05;10.20;;;21.50;99.90;;;;;;4978178;28;25094;-69
2022/07/12 06:55:25;;;;;;;14.60;11.98;;;21.70;99.90;;;;;;4977727;28;25066;-69
2022/07/12 06:57:51;;;;;;;12.80;10.38;;;22.00;99.90;;;;;;4965200;28;25162;-69
2022/07/12 07:00:17;;;;;;;10.88;9.68;;;22.30;99.90;;;;;;4964929;28;25086;-70
2022/07/12 07:02:42;;;;;;;12.48;10.95;;;22.60;99.90;;;;;;4971090;28;25086;-70
2022/07/12 07:05:08;;;;;;;10.65;9.65;;;22.80;99.90;;;;;;4978253;28;25066;-69
2022/07/12 07:07:34;;;;;;;11.95;9.50;;;22.90;99.90;;;;;;4967176;28;25090;-69
2022/07/12 07:09:59;;;;;;;12.88;9.32;;;23.00;99.90;;;;;;4976464;28;25124;-69
2022/07/12 07:12:25;;;;;;;10.75;9.07;;;22.80;99.90;;;;;;4973609;28;25156;-69
2022/07/12 07:14:51;;;;;;;14.45;8.15;;;23.10;99.90;;;;;;4985828;28;25132;-69
2022/07/12 07:17:17;;;;;;;9.32;8.10;;;23.10;99.90;;;;;;4980146;28;25060;-68
2022/07/12 07:19:44;;;;;;;10.98;8.95;;;23.20;99.90;;;;;;4979274;28;25076;-69
2022/07/12 07:22:10;;;;;;;13.02;8.80;;;23.20;99.90;;;;;;4976996;28;25058;-69
2022/07/12 07:24:35;;;;;;;11.55;8.98;;;23.30;99.90;;;;;;4964994;28;25061;-69
2022/07/12 07:27:01;;;;;;;8.85;7.95;;;23.40;99.90;;;;;;4976191;28;25061;-69
2022/07/12 07:32:11;;;;;;;11.32;7.95;;;23.20;99.90;;;;;;4968733;28;25140;-69
2022/07/12 07:34:37;;;;;;;8.98;7.97;;;23.20;99.90;;;;;;4971161;28;25142;-70
2022/07/12 07:37:03;;;;;;;9.13;8.07;;;23.60;99.90;;;;;;4971687;28;25133;-68
2022/07/12 07:39:28;;;;;;;7.53;6.82;;;23.80;99.90;;;;;;4964379;28;25125;-70
2022/07/12 07:41:54;;;;;;;9.13;8.18;;;24.30;99.90;;;;;;4981250;28;25138;-70
2022/07/12 07:44:20;;;;;;;10.02;8.30;;;24.40;99.90;;;;;;4964521;28;25145;-69
2022/07/12 07:46:45;;;;;;;11.07;8.18;;;24.40;99.90;;;;;;4970271;28;25074;-69
2022/07/12 07:49:11;;;;;;;8.10;6.82;;;24.20;99.90;;;;;;4972225;28;25093;-68
2022/07/12 07:51:36;;;;;;;9.25;7.10;;;24.30;99.90;;;;;;4976104;28;25106;-69
2022/07/12 07:54:02;;;;;;;10.60;7.18;;;24.30;99.90;;;;;;4967070;28;25156;-68
2022/07/12 07:56:28;;;;;;;6.47;5.88;;;24.30;99.90;;;;;;4970820;28;25078;-71
2022/07/12 07:58:54;;;;;;;7.60;6.43;;;24.40;99.90;;;;;;4968653;28;25069;-72
2022/07/12 08:01:20;;;;;;;6.95;6.25;;;24.40;99.90;;;;;;4970674;28;25062;-70
2022/07/12 08:03:45;;;;;;;9.75;5.50;;;24.10;99.90;;;;;;4984013;28;25143;-68
2022/07/12 08:06:11;;;;;;;8.30;5.88;;;24.00;99.90;;;;;;4968467;28;25057;-69
2022/07/12 08:08:36;;;;;;;9.60;6.60;;;24.10;99.90;;;;;;4977277;28;25138;-69
2022/07/12 08:11:03;;;;;;;10.40;7.32;;;23.90;99.90;;;;;;4970133;28;25063;-69
2022/07/12 08:13:28;;;;;;;7.50;6.80;;;23.60;99.90;;;;;;4969069;28;25062;-70
2022/07/12 08:15:54;;;;;;;10.90;7.63;;;23.60;99.90;;;;;;4984092;28;25104;-69
2022/07/12 08:18:19;;;;;;;9.02;7.85;;;23.50;99.90;;;;;;4979746;28;25056;-68
2022/07/12 08:20:45;;;;;;;11.45;7.25;;;23.40;99.90;;;;;;4985693;28;25075;-69
2022/07/12 08:23:12;;;;;;;10.48;7.18;;;23.30;99.90;;;;;;4967527;28;25082;-71
2022/07/12 08:25:37;;;;;;;12.13;7.22;;;23.50;99.90;;;;;;4967856;28;25256;-70
2022/07/12 08:28:04;;;;;;;8.85;6.88;;;23.80;99.90;;;;;;4976221;28;25064;-69
2022/07/12 08:30:29;;;;;;;11.05;5.82;;;24.20;99.90;;;;;;4974081;28;25066;-70
2022/07/12 08:32:55;;;;;;;18.80;6.90;;;24.30;99.90;;;;;;4965998;28;25096;-70
2022/07/12 08:35:20;;;;;;;7.45;6.72;;;24.30;99.90;;;;;;4975615;28;25138;-70
2022/07/12 08:37:46;;;;;;;5.70;5.18;;;24.10;99.90;;;;;;4958853;28;25103;-70
2022/07/12 08:40:11;;;;;;;12.38;6.35;;;24.10;99.90;;;;;;4968507;28;25148;-68
2022/07/12 08:42:40;;;;;;;6.50;5.82;;;24.30;99.90;;;;;;4967583;28;25076;-68
2022/07/12 08:45:06;;;;;;;9.50;5.22;;;24.30;99.90;;;;;;4973153;28;25132;-68
2022/07/12 08:47:32;;;;;;;7.15;6.38;;;24.30;99.90;;;;;;4983378;28;25062;-69
2022/07/12 08:50:18;;;;;;;7.35;6.65;;;24.30;99.90;;;;;;4968490;28;25162;-67
2022/07/12 08:52:54;;;;;;;9.48;5.68;;;24.50;99.90;;;;;;4990405;28;25150;-67
2022/07/12 08:55:30;;;;;;;7.50;5.47;;;24.90;99.90;;;;;;4966940;28;25070;-68
2022/07/12 08:57:58;;;;;;;6.40;5.78;;;25.30;99.90;;;;;;4964415;28;25074;-69
2022/07/12 09:00:25;;;;;;;9.88;6.05;;;25.60;99.90;;;;;;4964744;28;25073;-71
2022/07/12 09:02:52;;;;;;;8.18;6.20;;;26.00;99.90;;;;;;4976263;28;25081;-67
2022/07/12 09:05:20;;;;;;;7.75;5.80;;;26.00;99.90;;;;;;4971678;28;25081;-71
2022/07/12 09:07:50;;;;;;;7.97;4.90;;;25.90;99.90;;;;;;4976110;28;25074;-68
2022/07/12 09:10:17;;;;;;;6.35;5.75;;;26.00;99.90;;;;;;4971997;28;25101;-71
2022/07/12 09:12:44;;;;;;;11.75;6.28;;;25.90;99.90;;;;;;4972988;28;25160;-67
2022/07/12 09:15:19;;;;;;;9.90;6.97;;;26.20;99.90;;;;;;4975997;28;25095;-71
2022/07/12 09:18:04;;;;;;;7.22;6.50;;;26.50;99.90;;;;;;4979915;28;25065;-70
2022/07/12 09:20:38;;;;;;;8.85;6.78;;;26.50;99.90;;;;;;4976408;28;25090;-70
2022/07/12 09:23:14;;;;;;;8.35;6.70;;;26.60;99.90;;;;;;4988344;28;25137;-69
2022/07/12 09:25:44;;;;;;;9.07;6.15;;;26.80;99.90;;;;;;4978347;28;25076;-69
2022/07/12 09:28:09;;;;;;;8.77;6.97;;;27.20;99.90;;;;;;4972999;28;25075;-67
2022/07/12 09:30:37;;;;;;;7.25;6.55;;;27.20;99.90;;;;;;4979397;28;25061;-70
2022/07/12 09:36:08;;;;;;;8.30;6.10;;;27.30;99.90;;;;;;4975319;28;25157;-69
2022/07/12 09:38:38;;;;;;;9.55;6.30;;;27.60;99.90;;;;;;4982140;28;24914;-68
2022/07/12 09:41:05;;;;;;;9.70;6.78;;;28.10;99.90;;;;;;4974076;28;25063;-70
2022/07/12 09:43:31;;;;;;;9.75;6.88;;;28.30;96.40;;;;;;4975143;28;25150;-69
2022/07/12 09:45:57;;;;;;;14.13;8.73;;;27.70;98.20;;;;;;4972886;28;25054;-68
2022/07/12 09:48:25;;;;;;;8.68;7.40;;;27.20;97.10;;;;;;4972941;28;25141;-68
2022/07/12 09:50:51;;;;;;;9.05;8.18;;;27.10;97.10;;;;;;4985521;28;25116;-70
2022/07/12 09:53:21;;;;;;;7.50;6.22;;;27.00;99.90;;;;;;4973171;28;25111;-67
2022/07/12 09:55:50;;;;;;;7.28;6.57;;;27.30;99.90;;;;;;4973045;28;25096;-68
2022/07/12 09:58:38;;;;;;;7.47;6.70;;;27.60;99.40;;;;;;4971750;28;25076;-69
2022/07/12 10:01:07;;;;;;;10.18;9.15;;;27.80;96.20;;;;;;4971953;28;25069;-69
2022/07/12 10:03:34;;;;;;;9.30;7.63;;;28.00;95.30;;;;;;4983420;28;25100;-68
2022/07/12 10:06:02;;;;;;;7.10;6.25;;;27.50;95.60;;;;;;4970460;28;25123;-71
2022/07/12 10:08:29;;;;;;;7.95;5.88;;;27.70;95.30;;;;;;4972037;28;25076;-71
2022/07/12 10:10:55;;;;;;;6.50;5.82;;;28.00;92.20;;;;;;4970780;28;25067;-68
2022/07/12 10:13:21;;;;;;;10.70;7.57;;;28.00;91.00;;;;;;4972560;28;25097;-69
2022/07/12 10:15:50;;;;;;;6.97;5.25;;;28.10;87.90;;;;;;4988534;28;25102;-69
2022/07/12 10:18:17;;;;;;;7.75;6.47;;;28.30;90.90;;;;;;4974702;28;25138;-68
2022/07/12 10:20:45;;;;;;;6.28;5.68;;;28.50;82.60;;;;;;4973655;28;25054;-67
2022/07/12 10:23:25;;;;;;;5.88;4.57;;;28.00;72.70;;;;;;4979690;28;25069;-72
2022/07/12 10:25:51;;;;;;;7.65;4.85;;;27.90;78.80;;;;;;4972988;28;25059;-69
2022/07/12 10:28:16;;;;;;;6.32;3.97;;;28.20;81.00;;;;;;4971903;28;25069;-72
2022/07/12 10:30:44;;;;;;;5.03;4.53;;;28.40;75.90;;;;;;4977781;28;25110;-72
2022/07/12 10:33:19;;;;;;;5.15;4.65;;;28.40;72.30;;;;;;4972589;28;25061;-70
2022/07/12 10:36:06;;;;;;;5.97;5.22;;;28.10;73.30;;;;;;4978312;28;25095;-71
2022/07/12 10:38:33;;;;;;;6.85;4.05;;;27.90;68.60;;;;;;4976275;28;25137;-70
2022/07/12 10:41:17;;;;;;;4.88;4.40;;;28.10;73.70;;;;;;4970761;28;25092;-70
2022/07/12 10:46:27;;;;;;;6.38;5.55;;;28.20;65.30;;;;;;4964557;28;25101;-70
2022/07/12 10:49:26;;;;;;;9.05;4.07;;;28.20;69.20;;;;;;4971401;28;25049;-67
2022/07/12 10:52:10;;;;;;;8.00;3.83;;;28.50;73.30;;;;;;4974213;28;25150;-68
2022/07/12 10:54:40;;;;;;;9.48;4.20;;;28.80;61.70;;;;;;4969437;28;25111;-69
2022/07/12 10:57:06;;;;;;;5.72;4.88;;;28.70;60.80;;;;;;4970490;28;25065;-71
2022/07/12 10:59:36;;;;;;;7.30;5.82;;;28.60;52.00;;;;;;4978220;28;25087;-69
2022/07/12 11:02:03;;;;;;;7.93;5.80;;;28.40;59.00;;;;;;4969714;28;25111;-70
2022/07/12 11:04:29;;;;;;;5.70;5.10;;;28.30;68.40;;;;;;4972545;28;25110;-72
2022/07/12 11:06:56;;;;;;;4.90;4.05;;;28.50;68.60;;;;;;4965894;28;25069;-71
2022/07/12 11:09:23;;;;;;;6.03;3.97;;;28.60;73.80;;;;;;4975007;28;25151;-69
2022/07/12 11:11:50;;;;;;;4.22;3.83;;;28.60;70.80;;;;;;4975767;28;25072;-71
2022/07/12 11:14:23;;;;;;;6.63;4.88;;;29.00;66.40;;;;;;4970156;28;25092;-69
2022/07/12 11:16:51;;;;;;;6.15;5.15;;;29.40;62.10;;;;;;4977401;28;25176;-71
2022/07/12 11:19:24;;;;;;;5.97;5.43;;;29.60;52.80;;;;;;4972086;28;25109;-71
2022/07/12 11:21:55;;;;;;;8.98;6.40;;;29.30;45.80;;;;;;4977546;28;25086;-69
2022/07/12 11:24:22;;;;;;;4.65;4.20;;;29.80;56.40;;;;;;4972468;28;25140;-69
2022/07/12 11:26:48;;;;;;;6.18;4.38;;;30.50;52.50;;;;;;4970348;28;25117;-68
2022/07/12 11:29:14;;;;;;;6.13;3.65;;;30.20;31.60;;;;;;4967918;28;25094;-73
2022/07/12 11:31:40;;;;;;;4.32;3.92;;;29.90;41.80;;;;;;4968218;28;25047;-69
2022/07/12 11:34:06;;;;;;;7.20;3.90;;;30.00;45.00;;;;;;4973027;28;25077;-71
2022/07/12 11:36:33;;;;;;;4.22;3.55;;;30.20;18.90;;;;;;4976285;28;25078;-67
2022/07/12 11:39:00;;;;;;;8.45;3.83;;;30.10;18.50;;;;;;4973992;28;25051;-67
2022/07/12 11:41:26;;;;;;;3.45;3.15;;;30.20;29.10;;;;;;4968799;28;25092;-68
2022/07/12 11:43:51;;;;;;;5.47;3.97;;;29.90;19.10;;;;;;4971804;28;25063;-70
2022/07/12 11:46:17;;;;;;;6.05;3.60;;;30.00;28.60;;;;;;4971764;28;25099;-67
2022/07/12 11:48:43;;;;;;;7.53;3.78;;;30.20;33.10;;;;;;4963606;28;25085;-68
2022/07/12 11:51:12;;;;;;;6.03;3.67;;;29.90;22.00;;;;;;4973839;28;25103;-71
2022/07/12 11:53:39;;;;;;;3.97;2.97;;;30.00;18.90;;;;;;4975418;28;25147;-72
2022/07/12 11:56:06;;;;;;;3.33;3.03;;;29.90;17.80;;;;;;4975635;28;25102;-69
2022/07/12 11:58:32;;;;;;;4.25;2.97;;;30.00;15.10;;;;;;4968139;28;25083;-68
2022/07/12 12:00:58;;;;;;;5.45;3.80;;;30.00;15.30;;;;;;4981023;28;25150;-68
2022/07/12 12:03:24;;;;;;;5.05;4.40;;;30.10;9.80;;;;;;4966693;28;25073;-68
2022/07/12 12:05:53;;;;;;;5.18;3.60;;;29.90;3.60;;;;;;4980323;28;25136;-69
2022/07/12 12:08:19;;;;;;;3.85;3.45;;;29.80;9.90;;;;;;4973877;28;25058;-69
2022/07/12 12:10:57;;;;;;;7.25;3.78;;;30.20;7.10;;;;;;4961754;28;25084;-71
2022/07/12 12:13:27;;;;;;;3.20;2.90;;;30.20;6.10;;;;;;4969445;28;25071;-68
2022/07/12 12:16:01;;;;;;;4.90;4.28;;;30.10;16.10;;;;;;4978405;28;25123;-73
2022/07/12 12:18:29;;;;;;;4.32;3.92;;;29.80;3.60;;;;;;4975142;28;25058;-70
2022/07/12 12:21:00;;;;;;;4.35;3.90;;;29.80;9.30;;;;;;4971124;28;25108;-69
2022/07/12 12:23:27;;;;;;;4.20;3.58;;;29.70;9.90;;;;;;4981225;28;25063;-69
2022/07/12 12:26:07;;;;;;;7.28;3.88;;;29.60;16.70;;;;;;4972157;28;25067;-73
2022/07/12 12:28:52;;;;;;;3.78;3.47;;;29.90;8.30;;;;;;4981258;28;25079;-71
2022/07/12 12:31:21;;;;;;;4.30;3.90;;;29.50;1.60;;;;;;4976595;28;25126;-69
2022/07/12 12:33:53;;;;;;;6.53;3.08;;;29.80;11.80;;;;;;4980077;28;25058;-70
2022/07/12 12:36:20;;;;;;;;;;;30.30;14.80;;;;;;4978609;28;25065;-68
2022/07/12 12:38:47;;;;;;;4.30;3.75;;;30.60;5.20;;;;;;4977725;28;25143;-68
2022/07/12 12:41:13;;;;;;;6.47;4.75;;;30.00;1.00;;;;;;4975756;28;25061;-68
2022/07/12 12:43:39;;;;;;;8.30;3.85;;;29.50;1.00;;;;;;4968821;28;25064;-72
2022/07/12 12:46:05;;;;;;;4.15;3.72;;;29.40;1.00;;;;;;4962825;28;25058;-68
2022/07/12 12:48:33;;;;;;;5.07;4.57;;;29.70;1.00;;;;;;4968903;28;25059;-69
2022/07/12 12:51:10;;;;;;;9.10;4.68;;;29.60;1.00;;;;;;4980839;28;25082;-68
2022/07/12 12:53:38;;;;;;;6.00;3.90;;;29.30;1.00;;;;;;4969812;28;25128;-69
2022/07/12 12:56:09;;;;;;;7.60;4.28;;;29.20;1.70;;;;;;4975353;28;25073;-69